createdAt,value
2023-02-26T00:01:26.206Z,10.05
2023-02-26T00:03:55.902Z,9.98
2023-02-26T00:06:24.297Z,9.55
2023-02-26T00:08:51.673Z,9.48
2023-02-26T00:11:19.149Z,10.00
2023-02-26T00:13:46.462Z,9.35
2023-02-26T00:16:43.904Z,10.63
2023-02-26T00:19:12.446Z,10.48
2023-02-26T00:21:39.630Z,8.85
2023-02-26T00:24:06.895Z,9.70
2023-02-26T00:26:35.531Z,9.32
2023-02-26T00:29:04.085Z,9.63
2023-02-26T00:31:31.522Z,9.10
2023-02-26T00:33:59.039Z,9.13
2023-02-26T00:36:45.196Z,8.77
2023-02-26T00:39:33.936Z,8.63
2023-02-26T00:42:01.124Z,8.82
2023-02-26T00:44:28.332Z,7.90
2023-02-26T00:47:13.966Z,9.15
2023-02-26T00:50:09.827Z,8.68
2023-02-26T00:52:44.274Z,7.22
2023-02-26T00:55:11.353Z,9.05
2023-02-26T00:57:38.360Z,6.85
2023-02-26T01:00:08.143Z,8.23
2023-02-26T01:02:36.964Z,8.30
2023-02-26T01:05:04.779Z,8.27
2023-02-26T01:07:40.429Z,6.55
2023-02-26T01:10:08.381Z,8.03
2023-02-26T01:12:35.844Z,7.85
2023-02-26T01:15:04.556Z,7.90
2023-02-26T01:17:41.173Z,7.18
2023-02-26T01:22:51.624Z,8.93
2023-02-26T01:25:24.922Z,7.95
2023-02-26T01:27:52.808Z,9.05
2023-02-26T01:30:20.686Z,10.10
2023-02-26T01:33:22.018Z,9.85
2023-02-26T01:35:53.839Z,9.38
2023-02-26T01:38:28.503Z,9.07
2023-02-26T01:41:04.889Z,10.45
2023-02-26T01:43:39.627Z,9.40
2023-02-26T01:46:18.252Z,9.38
2023-02-26T01:48:52.338Z,8.50
2023-02-26T01:51:40.091Z,7.15
2023-02-26T01:54:07.308Z,8.13
2023-02-26T01:56:34.665Z,9.07
2023-02-26T01:59:06.047Z,8.60
2023-02-26T02:01:34.084Z,9.15
2023-02-26T02:04:01.148Z,10.07
2023-02-26T02:06:29.896Z,12.18
2023-02-26T02:08:57.014Z,9.13
2023-02-26T02:11:24.542Z,8.30
2023-02-26T02:14:41.918Z,7.90
2023-02-26T02:17:33.146Z,8.05
2023-02-26T02:20:34.092Z,7.75
2023-02-26T02:23:11.983Z,8.20
2023-02-26T02:25:48.088Z,8.05
2023-02-26T02:28:24.125Z,8.38
2023-02-26T02:31:13.943Z,8.10
2023-02-26T02:34:17.338Z,9.43
2023-02-26T02:36:53.371Z,7.63
2023-02-26T02:39:27.915Z,8.73
2023-02-26T02:42:27.559Z,8.98
2023-02-26T02:45:00.973Z,8.82
2023-02-26T02:47:31.107Z,9.93
2023-02-26T02:50:13.629Z,11.48
2023-02-26T02:52:50.346Z,10.02
2023-02-26T02:55:38.642Z,9.85
2023-02-26T02:58:11.713Z,9.75
2023-02-26T03:00:42.761Z,9.45
2023-02-26T03:03:25.066Z,9.20
2023-02-26T03:05:52.387Z,10.10
2023-02-26T03:08:25.447Z,8.88
2023-02-26T03:10:52.609Z,8.32
2023-02-26T03:13:23.649Z,8.15
2023-02-26T03:16:21.400Z,8.60
2023-02-26T03:19:00.737Z,7.95
2023-02-26T03:21:49.500Z,8.32
2023-02-26T03:24:55.550Z,8.95
2023-02-26T03:27:49.554Z,8.43
2023-02-26T03:30:40.600Z,7.18
2023-02-26T03:33:16.726Z,8.80
2023-02-26T03:35:55.302Z,7.50
2023-02-26T03:38:51.829Z,7.78
2023-02-26T03:41:36.137Z,7.28
2023-02-26T03:44:09.936Z,7.93
2023-02-26T03:46:44.883Z,6.68
2023-02-26T03:49:27.178Z,7.40
2023-02-26T03:51:55.023Z,7.40
2023-02-26T03:55:04.094Z,7.63
2023-02-26T03:57:50.138Z,7.78
2023-02-26T04:00:38.187Z,7.00
2023-02-26T04:03:14.638Z,8.68
2023-02-26T04:08:12.193Z,8.35
2023-02-26T04:10:55.869Z,8.38
2023-02-26T04:13:23.762Z,9.00
2023-02-26T04:15:51.274Z,9.10
2023-02-26T04:18:18.347Z,8.85
2023-02-26T04:20:45.245Z,8.73
2023-02-26T04:23:12.283Z,8.68
2023-02-26T04:25:39.985Z,7.90
2023-02-26T04:28:07.227Z,7.30
2023-02-26T04:30:34.346Z,8.55
2023-02-26T04:33:03.045Z,8.38
2023-02-26T04:35:30.239Z,7.35
2023-02-26T04:37:57.772Z,7.88
2023-02-26T04:40:25.172Z,7.43
2023-02-26T04:42:52.307Z,8.23
2023-02-26T04:45:23.914Z,8.02
2023-02-26T04:47:51.089Z,7.97
2023-02-26T04:50:18.153Z,7.85
2023-02-26T04:52:47.940Z,8.43
2023-02-26T04:55:14.954Z,7.70
2023-02-26T04:57:41.903Z,8.25
2023-02-26T05:00:09.511Z,8.60
2023-02-26T05:02:38.851Z,9.23
2023-02-26T05:05:05.924Z,8.23
2023-02-26T05:07:33.325Z,9.23
2023-02-26T05:10:00.228Z,8.00
2023-02-26T05:12:27.285Z,8.50
2023-02-26T05:14:54.233Z,9.43
2023-02-26T05:17:21.155Z,8.48
2023-02-26T05:19:48.176Z,8.25
2023-02-26T05:22:15.940Z,7.68
2023-02-26T05:24:43.927Z,8.23
2023-02-26T05:27:11.014Z,7.63
2023-02-26T05:29:45.028Z,8.43
2023-02-26T05:32:14.244Z,9.07
2023-02-26T05:34:41.216Z,9.35
2023-02-26T05:37:08.089Z,9.27
2023-02-26T05:39:35.076Z,9.02
2023-02-26T05:42:02.003Z,9.05
2023-02-26T05:44:29.139Z,9.70
2023-02-26T05:46:56.165Z,9.90
2023-02-26T05:49:23.099Z,9.93
2023-02-26T05:51:50.059Z,8.45
2023-02-26T05:54:17.047Z,9.35
2023-02-26T05:56:44.121Z,8.77
2023-02-26T05:59:11.112Z,8.57
2023-02-26T06:01:38.245Z,8.68
2023-02-26T06:04:06.581Z,7.70
2023-02-26T06:06:33.927Z,8.32
2023-02-26T06:09:02.420Z,7.47
2023-02-26T06:11:34.065Z,8.38
2023-02-26T06:14:01.593Z,6.88
2023-02-26T06:16:28.886Z,8.15
2023-02-26T06:18:55.986Z,8.00
2023-02-26T06:21:22.939Z,8.45
2023-02-26T06:23:49.993Z,7.55
2023-02-26T06:26:16.917Z,8.13
2023-02-26T06:28:43.830Z,6.93
2023-02-26T06:31:10.753Z,8.02
2023-02-26T06:33:37.679Z,7.78
2023-02-26T06:36:04.940Z,7.45
2023-02-26T06:38:31.804Z,7.25
2023-02-26T06:40:58.877Z,7.75
2023-02-26T06:43:26.164Z,8.57
2023-02-26T06:45:53.143Z,8.10
2023-02-26T06:48:20.278Z,7.85
2023-02-26T06:50:47.217Z,7.90
2023-02-26T06:53:14.175Z,6.88
2023-02-26T06:55:46.095Z,7.53
2023-02-26T06:58:14.104Z,8.25
2023-02-26T07:00:41.636Z,7.85
2023-02-26T07:03:12.954Z,7.80
2023-02-26T07:05:39.892Z,8.27
2023-02-26T07:08:06.865Z,7.50
2023-02-26T07:10:35.486Z,7.85
2023-02-26T07:13:03.193Z,8.30
2023-02-26T07:15:30.553Z,8.75
2023-02-26T07:17:57.479Z,9.40
2023-02-26T07:20:24.429Z,8.13
2023-02-26T07:22:51.353Z,6.35
2023-02-26T07:25:18.625Z,6.03
2023-02-26T07:27:45.521Z,7.47
2023-02-26T07:30:13.023Z,8.18
2023-02-26T07:32:40.107Z,7.95
2023-02-26T07:35:07.315Z,7.15
2023-02-26T07:37:34.225Z,6.95
2023-02-26T07:40:01.204Z,7.60
2023-02-26T07:42:28.122Z,8.93
2023-02-26T07:44:55.078Z,7.68
2023-02-26T07:47:22.059Z,8.50
2023-02-26T07:49:49.099Z,8.93
2023-02-26T07:52:16.708Z,4.22
2023-02-26T07:54:43.899Z,4.90
2023-02-26T07:57:10.992Z,4.32
2023-02-26T07:59:38.004Z,9.02
2023-02-26T08:02:07.071Z,7.95
2023-02-26T08:04:34.233Z,8.73
2023-02-26T08:07:01.793Z,8.73
2023-02-26T08:09:29.362Z,8.98
2023-02-26T08:11:56.560Z,9.70
2023-02-26T08:14:23.631Z,9.27
2023-02-26T08:16:50.616Z,8.95
2023-02-26T08:19:18.438Z,9.57
2023-02-26T08:21:45.342Z,9.43
2023-02-26T08:24:12.815Z,8.15
2023-02-26T08:26:39.833Z,10.23
2023-02-26T08:29:07.527Z,9.80
2023-02-26T08:31:35.611Z,10.77
2023-02-26T08:34:02.694Z,9.70
2023-02-26T08:36:30.472Z,9.45
2023-02-26T08:38:57.613Z,11.18
2023-02-26T08:41:27.686Z,8.48
2023-02-26T08:43:54.831Z,7.82
2023-02-26T08:46:22.036Z,8.23
2023-02-26T08:48:49.042Z,7.05
2023-02-26T08:51:16.009Z,7.70
2023-02-26T08:53:45.470Z,7.28
2023-02-26T08:56:12.433Z,6.10
2023-02-26T08:58:39.914Z,6.80
2023-02-26T09:01:06.911Z,5.50
2023-02-26T09:03:33.857Z,5.50
2023-02-26T09:06:00.879Z,5.90
2023-02-26T09:08:27.828Z,5.65
2023-02-26T09:10:54.769Z,5.18
2023-02-26T09:13:21.700Z,5.80
2023-02-26T09:15:49.830Z,5.50
2023-02-26T09:18:16.853Z,5.88
2023-02-26T09:20:45.136Z,4.88
2023-02-26T09:23:12.993Z,5.50
2023-02-26T09:25:40.104Z,5.57
2023-02-26T09:28:07.099Z,4.30
2023-02-26T09:30:34.202Z,5.13
2023-02-26T09:33:01.154Z,4.90
2023-02-26T09:35:28.355Z,4.82
2023-02-26T09:37:55.276Z,4.50
2023-02-26T09:40:25.910Z,4.47
2023-02-26T09:43:17.214Z,4.82
2023-02-26T10:18:01.317Z,4.77
2023-02-26T10:20:39.882Z,5.40
2023-02-26T10:23:18.112Z,4.18
2023-02-26T10:25:50.023Z,5.57
2023-02-26T10:28:35.256Z,4.43
2023-02-26T10:31:17.313Z,4.75
2023-02-26T10:33:50.892Z,4.85
2023-02-26T10:36:25.182Z,4.60
2023-02-26T10:38:59.459Z,4.78
2023-02-26T10:41:30.602Z,5.05
2023-02-26T10:44:24.408Z,4.40
2023-02-26T10:47:28.239Z,5.10
2023-02-26T10:50:13.611Z,4.50
2023-02-26T10:52:43.728Z,4.72
2023-02-26T10:55:16.321Z,4.85
2023-02-26T10:57:55.102Z,4.20
2023-02-26T11:00:22.928Z,4.85
2023-02-26T11:02:53.539Z,4.32
2023-02-26T11:05:28.156Z,4.53
2023-02-26T11:08:00.370Z,4.68
2023-02-26T11:10:40.633Z,4.47
2023-02-26T11:13:07.798Z,5.53
2023-02-26T11:15:34.777Z,4.50
2023-02-26T11:18:02.404Z,4.97
2023-02-26T11:20:37.660Z,5.25
2023-02-26T11:23:11.447Z,4.90
2023-02-26T11:25:39.480Z,4.55
2023-02-26T11:28:19.997Z,4.13
2023-02-26T11:30:49.301Z,5.05
2023-02-26T11:33:24.547Z,3.70
2023-02-26T11:35:52.598Z,4.97
2023-02-26T11:38:25.758Z,4.70
2023-02-26T11:40:58.356Z,4.13
2023-02-26T11:43:33.895Z,4.15
2023-02-26T11:46:02.995Z,4.80
2023-02-26T11:48:39.489Z,5.15
2023-02-26T11:53:43.107Z,5.40
2023-02-26T11:56:16.033Z,5.25
2023-02-26T11:58:46.066Z,5.72
2023-02-26T12:01:16.826Z,4.53
2023-02-26T12:03:47.958Z,5.78
2023-02-26T12:06:24.926Z,5.22
2023-02-26T12:08:53.554Z,4.68
2023-02-26T12:11:50.453Z,4.40
2023-02-26T12:14:39.391Z,4.43
2023-02-26T12:17:16.305Z,4.40
2023-02-26T12:20:15.294Z,3.88
2023-02-26T12:23:01.090Z,5.53
2023-02-26T12:25:49.575Z,4.85
2023-02-26T12:28:44.395Z,4.68
2023-02-26T12:31:36.698Z,4.93
2023-02-26T12:34:15.581Z,5.20
2023-02-26T12:36:49.866Z,5.88
2023-02-26T12:39:40.721Z,4.55
2023-02-26T12:42:47.487Z,4.93
2023-02-26T12:45:36.133Z,4.32
2023-02-26T12:48:14.995Z,5.72
2023-02-26T12:51:09.740Z,4.88
2023-02-26T12:53:39.287Z,5.50
2023-02-26T12:56:24.360Z,4.47
2023-02-26T12:59:18.238Z,4.90
2023-02-26T13:02:13.623Z,4.50
2023-02-26T13:04:52.425Z,8.48
2023-02-26T13:07:50.062Z,4.47
2023-02-26T13:10:35.130Z,5.07
2023-02-26T13:13:28.521Z,5.22
2023-02-26T13:16:04.388Z,4.32
2023-02-26T13:18:48.853Z,4.53
2023-02-26T13:21:33.545Z,4.78
2023-02-26T13:24:11.622Z,6.07
2023-02-26T13:26:39.099Z,4.95
2023-02-26T13:29:17.587Z,4.57
2023-02-26T13:31:59.219Z,5.55
2023-02-26T13:34:35.389Z,5.45
2023-02-26T13:37:03.903Z,4.45
2023-02-26T13:39:41.125Z,5.28
2023-02-26T13:42:35.692Z,5.35
2023-02-26T13:45:36.930Z,5.68
2023-02-26T13:48:41.694Z,5.15
2023-02-26T13:51:29.733Z,5.70
2023-02-26T13:54:04.614Z,5.43
2023-02-26T13:56:31.536Z,4.97
2023-02-26T13:59:15.139Z,4.60
2023-02-26T14:01:47.553Z,6.05
2023-02-26T14:04:20.277Z,4.13
2023-02-26T14:06:59.923Z,5.57
2023-02-26T14:09:36.612Z,5.00
2023-02-26T14:12:18.343Z,4.97
2023-02-26T14:15:13.895Z,5.32
2023-02-26T14:17:49.244Z,5.28
2023-02-26T14:20:26.740Z,6.00
2023-02-26T14:23:06.463Z,4.32
2023-02-26T14:25:37.816Z,4.93
2023-02-26T14:28:33.794Z,4.53
2023-02-26T14:31:04.411Z,5.32
2023-02-26T14:33:37.975Z,4.55
2023-02-26T14:36:08.423Z,3.47
2023-02-26T14:38:39.570Z,4.82
2023-02-26T14:41:18.950Z,5.22
2023-02-26T14:44:21.044Z,5.68
2023-02-26T14:46:49.815Z,6.38
2023-02-26T14:49:27.490Z,8.32
2023-02-26T14:52:03.925Z,11.80
2023-02-26T14:54:42.843Z,10.75
2023-02-26T14:57:28.243Z,10.55
2023-02-26T15:00:19.129Z,8.82
2023-02-26T15:03:13.658Z,6.03
2023-02-26T15:06:04.410Z,7.72
2023-02-26T15:08:49.420Z,6.40
2023-02-26T15:11:56.790Z,6.68
2023-02-26T15:14:43.713Z,5.82
2023-02-26T15:20:10.055Z,5.90
2023-02-26T15:22:36.901Z,6.80
2023-02-26T15:25:11.965Z,6.20
2023-02-26T15:27:39.212Z,6.40
2023-02-26T15:30:06.962Z,5.10
2023-02-26T15:32:38.138Z,5.20
2023-02-26T15:35:16.521Z,5.22
2023-02-26T15:37:43.650Z,5.82
2023-02-26T15:40:14.537Z,5.88
2023-02-26T15:42:45.377Z,5.00
2023-02-26T15:45:33.627Z,5.75
2023-02-26T15:48:25.272Z,4.97
2023-02-26T15:50:59.354Z,5.35
2023-02-26T15:53:35.856Z,5.47
2023-02-26T15:58:40.960Z,5.50
2023-02-26T16:01:08.073Z,4.68
2023-02-26T16:03:37.527Z,4.90
2023-02-26T16:06:07.082Z,4.65
2023-02-26T16:08:34.247Z,4.85
2023-02-26T16:11:02.284Z,3.47
2023-02-26T16:13:33.048Z,4.57
2023-02-26T16:16:12.049Z,5.72
2023-02-26T16:18:41.438Z,5.40
2023-02-26T16:21:12.748Z,6.63
2023-02-26T16:23:45.362Z,4.65
2023-02-26T16:26:21.631Z,4.63
2023-02-26T16:28:54.112Z,4.22
2023-02-26T16:31:25.518Z,5.20
2023-02-26T16:33:59.978Z,4.82
2023-02-26T16:36:31.661Z,5.10
2023-02-26T16:39:27.815Z,5.63
2023-02-26T16:42:37.142Z,6.00
2023-02-26T16:45:30.239Z,6.10
2023-02-26T16:47:58.868Z,6.25
2023-02-26T16:50:29.255Z,5.80
2023-02-26T16:53:06.343Z,6.15
2023-02-26T16:55:36.880Z,5.78
2023-02-26T16:58:07.747Z,4.80
2023-02-26T17:00:37.589Z,5.80
2023-02-26T17:03:18.573Z,4.78
2023-02-26T17:06:02.293Z,5.20
2023-02-26T17:08:52.512Z,5.43
2023-02-26T17:11:28.444Z,5.15
2023-02-26T17:14:22.607Z,4.73
2023-02-26T17:16:51.036Z,4.65
2023-02-26T17:19:19.130Z,4.50
2023-02-26T17:22:00.485Z,4.95
2023-02-26T17:24:33.785Z,5.07
2023-02-26T17:27:02.989Z,4.68
2023-02-26T17:29:42.181Z,5.28
2023-02-26T17:32:20.614Z,5.22
2023-02-26T17:34:47.749Z,5.13
2023-02-26T17:37:15.632Z,5.25
2023-02-26T17:39:43.765Z,5.07
2023-02-26T17:42:21.893Z,5.97
2023-02-26T17:44:49.794Z,4.97
2023-02-26T17:47:19.405Z,4.97
2023-02-26T17:49:46.824Z,5.65
2023-02-26T17:52:14.431Z,5.15
2023-02-26T17:54:41.672Z,5.93
2023-02-26T17:57:16.759Z,5.68
2023-02-26T17:59:43.737Z,5.65
2023-02-26T18:02:21.460Z,5.70
2023-02-26T18:04:48.415Z,5.35
2023-02-26T18:07:16.952Z,5.53
2023-02-26T18:09:45.788Z,5.07
2023-02-26T18:12:18.223Z,4.80
2023-02-26T18:14:46.285Z,5.15
2023-02-26T18:17:15.124Z,4.60
2023-02-26T18:19:43.049Z,5.78
2023-02-26T18:22:14.497Z,5.25
2023-02-26T18:24:42.103Z,5.13
2023-02-26T18:27:14.798Z,4.93
2023-02-26T18:29:42.000Z,4.18
2023-02-26T18:32:17.327Z,5.65
2023-02-26T18:34:44.540Z,5.82
2023-02-26T18:37:17.208Z,4.75
2023-02-26T18:39:44.902Z,5.07
2023-02-26T18:42:23.398Z,4.95
2023-02-26T18:44:51.525Z,5.63
2023-02-26T18:47:19.632Z,6.70
2023-02-26T18:49:49.726Z,4.90
2023-02-26T18:52:17.551Z,4.80
2023-02-26T18:54:45.315Z,5.50
2023-02-26T18:57:12.347Z,5.28
2023-02-26T18:59:39.501Z,5.72
2023-02-26T19:02:08.068Z,5.40
2023-02-26T19:04:35.337Z,3.65
2023-02-26T19:07:02.447Z,4.65
2023-02-26T19:09:29.708Z,6.05
2023-02-26T19:11:57.505Z,6.28
2023-02-26T19:14:25.108Z,7.82
2023-02-26T19:16:52.140Z,8.52
2023-02-26T19:19:19.352Z,5.82
2023-02-26T19:21:46.759Z,5.38
2023-02-26T19:24:15.104Z,6.80
2023-02-26T19:26:43.328Z,6.47
2023-02-26T19:29:15.263Z,5.45
2023-02-26T19:31:43.103Z,7.57
2023-02-26T19:34:10.488Z,6.30
2023-02-26T19:36:37.681Z,5.70
2023-02-26T19:39:05.914Z,6.07
2023-02-26T19:41:33.236Z,5.47
2023-02-26T19:44:00.338Z,5.97
2023-02-26T19:46:27.481Z,7.25
2023-02-26T19:48:54.466Z,6.25
2023-02-26T19:51:21.678Z,5.35
2023-02-26T19:53:48.571Z,5.15
2023-02-26T19:56:16.249Z,5.63
2023-02-26T19:58:43.764Z,5.18
2023-02-26T20:01:10.848Z,5.43
2023-02-26T20:03:37.819Z,4.90
2023-02-26T20:06:05.198Z,5.38
2023-02-26T20:08:32.369Z,4.32
2023-02-26T20:10:59.388Z,4.18
2023-02-26T20:13:29.908Z,4.30
2023-02-26T20:15:58.746Z,3.92
2023-02-26T20:18:28.722Z,4.00
2023-02-26T20:20:55.869Z,4.20
2023-02-26T20:23:22.971Z,4.95
2023-02-26T20:25:50.686Z,3.72
2023-02-26T20:28:18.598Z,3.15
2023-02-26T20:30:46.565Z,3.03
2023-02-26T20:33:14.231Z,4.05
2023-02-26T20:35:46.092Z,3.67
2023-02-26T20:38:17.955Z,4.50
2023-02-26T20:40:46.742Z,4.10
2023-02-26T20:43:13.724Z,4.03
2023-02-26T20:45:41.907Z,3.70
2023-02-26T20:48:10.113Z,3.83
2023-02-26T20:50:37.616Z,3.72
2023-02-26T20:53:05.261Z,3.97
2023-02-26T20:55:33.153Z,4.28
2023-02-26T20:58:00.237Z,3.33
2023-02-26T21:00:27.857Z,3.60
2023-02-26T21:02:54.921Z,3.58
2023-02-26T21:05:22.068Z,3.63
2023-02-26T21:07:50.675Z,4.75
2023-02-26T21:10:18.685Z,4.80
2023-02-26T21:12:46.119Z,4.22
2023-02-26T21:15:14.162Z,4.10
2023-02-26T21:17:43.073Z,4.70
2023-02-26T21:20:18.155Z,4.05
2023-02-26T21:22:46.366Z,5.63
2023-02-26T21:25:13.723Z,3.70
2023-02-26T21:27:41.297Z,3.38
2023-02-26T21:30:10.264Z,3.75
2023-02-26T21:32:37.417Z,5.47
2023-02-26T21:35:05.569Z,6.47
2023-02-26T21:37:32.620Z,5.60
2023-02-26T21:39:59.646Z,4.63
2023-02-26T21:42:26.822Z,5.53
2023-02-26T21:44:53.741Z,4.10
2023-02-26T21:47:20.623Z,3.97
2023-02-26T21:49:48.392Z,3.30
2023-02-26T21:52:15.380Z,3.22
2023-02-26T21:54:43.884Z,4.20
2023-02-26T21:57:11.092Z,3.65
2023-02-26T21:59:38.028Z,5.05
2023-02-26T22:02:05.532Z,3.15
2023-02-26T22:04:33.842Z,3.33
2023-02-26T22:07:00.943Z,4.60
2023-02-26T22:09:27.957Z,6.70
2023-02-26T22:11:54.973Z,6.38
2023-02-26T22:14:22.276Z,4.65
2023-02-26T22:16:49.265Z,3.53
2023-02-26T22:19:16.213Z,2.80
2023-02-26T22:21:43.167Z,3.92
2023-02-26T22:24:10.397Z,3.15
2023-02-26T22:26:37.553Z,3.92
2023-02-26T22:29:04.651Z,3.55
2023-02-26T22:31:32.638Z,2.58
2023-02-26T22:34:00.443Z,3.78
2023-02-26T22:36:29.538Z,3.40
2023-02-26T22:38:57.234Z,4.47
2023-02-26T22:41:24.372Z,4.05
2023-02-26T22:43:53.783Z,3.53
2023-02-26T22:46:23.370Z,3.90
2023-02-26T22:48:50.282Z,4.07
2023-02-26T22:51:17.211Z,4.13
2023-02-26T22:53:44.133Z,4.15
2023-02-26T22:56:11.123Z,4.15
2023-02-26T22:58:38.765Z,4.45
2023-02-26T23:01:07.476Z,3.67
2023-02-26T23:03:34.938Z,3.65
2023-02-26T23:06:01.918Z,3.63
2023-02-26T23:08:28.889Z,3.88
2023-02-26T23:11:01.181Z,3.78
2023-02-26T23:13:30.913Z,3.83
2023-02-26T23:15:58.505Z,3.60
2023-02-26T23:18:25.661Z,3.20
2023-02-26T23:20:52.653Z,3.83
2023-02-26T23:23:19.552Z,3.17
2023-02-26T23:25:47.071Z,3.58
2023-02-26T23:28:14.208Z,3.90
2023-02-26T23:30:41.476Z,3.38
2023-02-26T23:33:08.506Z,4.15
2023-02-26T23:35:35.934Z,3.90
2023-02-26T23:38:04.241Z,4.05
2023-02-26T23:40:31.714Z,3.60
2023-02-26T23:42:58.895Z,3.80
2023-02-26T23:45:25.882Z,3.80
2023-02-26T23:47:52.827Z,3.70
2023-02-26T23:50:19.704Z,4.35
2023-02-26T23:52:46.854Z,3.92
2023-02-26T23:55:13.772Z,3.97
2023-02-26T23:57:40.857Z,3.83
